createdAt,value
2017-12-14T00:01:36.380Z,70.24
2017-12-14T00:04:05.513Z,69.59
2017-12-14T00:06:33.941Z,69.13
2017-12-14T00:09:02.678Z,68.88
2017-12-14T00:11:32.181Z,68.79
2017-12-14T00:14:00.505Z,68.31
2017-12-14T00:16:30.381Z,67.76
2017-12-14T00:18:58.784Z,68.00
2017-12-14T00:21:27.104Z,67.54
2017-12-14T00:23:55.473Z,67.66
2017-12-14T00:26:24.603Z,67.76
2017-12-14T00:28:53.308Z,67.67
2017-12-14T00:31:21.686Z,67.42
2017-12-14T00:33:50.080Z,67.54
2017-12-14T00:36:18.405Z,67.40
2017-12-14T00:38:46.768Z,67.40
2017-12-14T00:41:15.892Z,67.27
2017-12-14T00:43:45.969Z,66.97
2017-12-14T00:46:15.102Z,66.92
2017-12-14T00:48:43.420Z,66.83
2017-12-14T00:51:11.811Z,66.92
2017-12-14T00:53:40.185Z,67.66
2017-12-14T00:56:08.552Z,68.25
2017-12-14T00:58:36.928Z,68.70
2017-12-14T01:01:05.252Z,68.77
2017-12-14T01:03:33.578Z,68.34
2017-12-14T01:06:02.712Z,68.25
2017-12-14T01:08:31.804Z,68.19
2017-12-14T01:11:00.932Z,68.06
2017-12-14T01:13:29.267Z,67.89
2017-12-14T01:15:57.697Z,67.78
2017-12-14T01:18:26.864Z,67.72
2017-12-14T01:20:55.988Z,67.74
2017-12-14T01:23:25.076Z,67.55
2017-12-14T01:25:53.396Z,67.50
2017-12-14T01:28:21.752Z,67.18
2017-12-14T01:30:50.119Z,67.08
2017-12-14T01:33:19.263Z,67.09
2017-12-14T01:35:47.645Z,67.15
2017-12-14T01:38:16.779Z,66.88
2017-12-14T01:40:45.491Z,66.87
2017-12-14T01:43:13.857Z,66.94
2017-12-14T01:45:42.234Z,66.79
2017-12-14T01:48:10.968Z,66.86
2017-12-14T01:50:39.318Z,66.87
2017-12-14T01:53:07.634Z,66.75
2017-12-14T01:55:36.752Z,66.90
2017-12-14T01:58:05.123Z,67.34
2017-12-14T02:00:33.519Z,67.94
2017-12-14T02:03:01.873Z,68.79
2017-12-14T02:05:30.947Z,69.06
2017-12-14T02:07:59.303Z,69.51
2017-12-14T02:10:27.747Z,70.79
2017-12-14T02:12:56.075Z,71.26
2017-12-14T02:15:24.795Z,71.78
2017-12-14T02:17:53.143Z,72.66
2017-12-14T02:20:21.539Z,72.64
2017-12-14T02:22:50.251Z,73.03
2017-12-14T02:25:18.607Z,73.59
2017-12-14T02:27:46.955Z,74.70
2017-12-14T02:30:15.267Z,74.61
2017-12-14T02:32:43.611Z,74.96
2017-12-14T02:35:11.927Z,75.43
2017-12-14T02:37:40.295Z,75.80
2017-12-14T02:40:08.615Z,76.50
2017-12-14T02:42:37.381Z,76.76
2017-12-14T02:45:06.471Z,77.29
2017-12-14T02:47:34.803Z,77.94
2017-12-14T02:50:03.155Z,78.04
2017-12-14T02:52:31.923Z,78.48
2017-12-14T02:55:00.243Z,78.94
2017-12-14T02:57:28.603Z,79.53
2017-12-14T02:59:57.366Z,79.61
2017-12-14T03:02:25.691Z,80.07
2017-12-14T03:04:54.786Z,80.76
2017-12-14T03:07:24.502Z,81.44
2017-12-14T03:09:53.583Z,81.32
2017-12-14T03:12:21.934Z,81.71
2017-12-14T03:14:50.291Z,81.91
2017-12-14T03:17:18.634Z,81.62
2017-12-14T03:19:47.710Z,82.19
2017-12-14T03:22:16.857Z,82.21
2017-12-14T03:24:45.186Z,82.42
2017-12-14T03:27:13.556Z,82.52
2017-12-14T03:29:41.879Z,82.91
2017-12-14T03:32:10.201Z,82.94
2017-12-14T03:34:38.574Z,82.74
2017-12-14T03:37:07.070Z,82.81
2017-12-14T03:39:35.399Z,82.62
2017-12-14T03:42:03.774Z,82.28
2017-12-14T03:44:32.103Z,82.28
2017-12-14T03:47:01.186Z,82.93
2017-12-14T03:49:29.566Z,82.78
2017-12-14T03:51:57.915Z,82.48
2017-12-14T03:54:26.681Z,82.17
2017-12-14T03:56:54.999Z,82.35
2017-12-14T03:59:23.314Z,82.27
2017-12-14T04:01:53.027Z,82.24
2017-12-14T04:04:22.106Z,82.21
2017-12-14T04:06:51.234Z,82.08
2017-12-14T04:09:19.575Z,82.07
2017-12-14T04:11:48.342Z,81.93
2017-12-14T04:14:16.718Z,81.84
2017-12-14T04:16:45.062Z,81.79
2017-12-14T04:19:13.814Z,81.66
2017-12-14T04:21:42.590Z,81.93
2017-12-14T04:24:11.702Z,81.56
2017-12-14T04:26:40.467Z,81.67
2017-12-14T04:29:08.786Z,81.56
2017-12-14T04:31:37.146Z,81.78
2017-12-14T04:34:06.310Z,82.00
2017-12-14T04:36:34.651Z,81.93
2017-12-14T04:39:03.788Z,82.49
2017-12-14T04:41:32.118Z,82.74
2017-12-14T04:44:00.497Z,83.59
2017-12-14T04:46:28.818Z,84.20
2017-12-14T04:48:57.242Z,84.52
2017-12-14T04:51:25.598Z,84.58
2017-12-14T04:53:55.101Z,84.78
2017-12-14T04:56:24.193Z,84.79
2017-12-14T04:58:52.982Z,84.87
2017-12-14T05:01:21.306Z,84.92
2017-12-14T05:03:49.654Z,85.14
2017-12-14T05:06:18.775Z,85.14
2017-12-14T05:08:47.156Z,85.16
2017-12-14T05:11:16.882Z,85.11
2017-12-14T05:13:45.642Z,85.13
2017-12-14T05:16:14.010Z,85.29
2017-12-14T05:18:42.726Z,85.25
2017-12-14T05:21:22.018Z,84.92
2017-12-14T05:23:50.737Z,84.73
2017-12-14T05:26:19.071Z,84.69
2017-12-14T05:28:48.214Z,84.68
2017-12-14T05:31:16.574Z,84.39
2017-12-14T05:33:44.907Z,84.10
2017-12-14T05:36:13.730Z,83.74
2017-12-14T05:38:43.214Z,83.19
2017-12-14T05:41:12.711Z,83.13
2017-12-14T05:43:41.810Z,83.46
2017-12-14T05:46:11.314Z,83.50
2017-12-14T05:48:39.767Z,83.61
2017-12-14T05:51:08.090Z,83.84
2017-12-14T05:53:37.210Z,83.97
2017-12-14T05:56:06.309Z,83.95
2017-12-14T05:58:34.658Z,83.94
2017-12-14T06:01:03.758Z,84.02
2017-12-14T06:03:32.122Z,84.13
2017-12-14T06:06:01.386Z,84.51
2017-12-14T06:08:30.542Z,84.28
2017-12-14T06:10:58.874Z,84.50
2017-12-14T06:13:27.206Z,84.73
2017-12-14T06:15:55.570Z,84.68
2017-12-14T06:18:23.886Z,84.64
2017-12-14T06:20:52.218Z,84.66
2017-12-14T06:23:21.119Z,84.76
2017-12-14T06:25:49.465Z,84.83
2017-12-14T06:28:18.638Z,84.94
2017-12-14T06:30:47.729Z,85.13
2017-12-14T06:33:16.098Z,85.16
2017-12-14T06:35:46.054Z,85.15
2017-12-14T06:38:15.923Z,85.14
2017-12-14T06:40:44.283Z,85.18
2017-12-14T06:43:12.611Z,84.99
2017-12-14T06:45:40.966Z,85.01
2017-12-14T06:48:10.693Z,84.83
2017-12-14T06:50:39.062Z,84.62
2017-12-14T06:53:07.409Z,84.47
2017-12-14T06:55:38.827Z,84.31
2017-12-14T06:58:07.958Z,84.14
2017-12-14T07:00:37.066Z,83.98
2017-12-14T07:03:27.278Z,84.02
2017-12-14T07:05:56.377Z,83.72
2017-12-14T07:08:25.225Z,83.67
2017-12-14T07:10:53.989Z,83.47
2017-12-14T07:13:23.837Z,83.55
2017-12-14T07:15:53.597Z,83.53
2017-12-14T07:18:21.917Z,83.43
2017-12-14T07:20:50.264Z,83.36
2017-12-14T07:23:18.583Z,83.16
2017-12-14T07:25:46.926Z,83.02
2017-12-14T07:28:16.061Z,82.88
2017-12-14T07:30:44.949Z,82.79
2017-12-14T07:33:14.027Z,82.66
2017-12-14T07:35:42.375Z,82.62
2017-12-14T07:38:11.111Z,82.41
2017-12-14T07:40:39.469Z,81.99
2017-12-14T07:43:12.273Z,81.36
2017-12-14T07:46:10.988Z,80.92
2017-12-14T07:48:45.933Z,80.63
2017-12-14T07:51:15.067Z,80.18
2017-12-14T07:53:43.781Z,79.73
2017-12-14T07:56:12.173Z,79.62
2017-12-14T07:58:40.609Z,79.11
2017-12-14T08:01:09.705Z,78.86
2017-12-14T08:03:38.097Z,78.68
2017-12-14T08:06:06.864Z,78.14
2017-12-14T08:08:35.276Z,77.89
2017-12-14T08:11:03.748Z,77.74
2017-12-14T08:13:32.084Z,77.87
2017-12-14T08:16:00.445Z,77.63
2017-12-14T08:18:29.560Z,77.32
2017-12-14T08:20:57.932Z,77.20
2017-12-14T08:23:27.431Z,77.03
2017-12-14T08:25:56.245Z,76.92
2017-12-14T08:28:24.578Z,76.84
2017-12-14T08:30:53.965Z,76.82
2017-12-14T08:33:22.404Z,76.39
2017-12-14T08:35:51.171Z,76.12
2017-12-14T08:38:19.503Z,76.21
2017-12-14T08:40:47.865Z,76.40
2017-12-14T08:43:16.660Z,76.08
2017-12-14T08:45:45.021Z,75.59
2017-12-14T08:48:13.725Z,75.55
2017-12-14T08:50:42.047Z,75.95
2017-12-14T08:53:11.176Z,75.84
2017-12-14T08:55:39.952Z,75.49
2017-12-14T08:58:08.345Z,75.45
2017-12-14T09:00:36.820Z,75.46
2017-12-14T09:03:05.238Z,75.66
2017-12-14T09:05:34.014Z,76.02
2017-12-14T09:08:02.334Z,76.67
2017-12-14T09:10:31.434Z,78.32
2017-12-14T09:12:59.796Z,78.90
2017-12-14T09:15:28.120Z,79.36
2017-12-14T09:17:56.477Z,79.63
2017-12-14T09:20:24.852Z,79.98
2017-12-14T09:22:53.637Z,79.92
2017-12-14T09:25:23.091Z,80.26
2017-12-14T09:27:51.453Z,80.44
2017-12-14T09:30:20.156Z,81.14
2017-12-14T09:32:49.264Z,81.99
2017-12-14T09:35:17.604Z,83.08
2017-12-14T09:37:45.932Z,82.50
2017-12-14T09:40:15.220Z,82.98
2017-12-14T09:42:43.540Z,83.55
2017-12-14T09:45:11.872Z,83.88
2017-12-14T09:47:40.244Z,84.43
2017-12-14T09:50:08.565Z,84.73
2017-12-14T09:52:37.663Z,84.77
2017-12-14T09:55:06.035Z,84.95
2017-12-14T09:57:34.347Z,85.40
2017-12-14T10:00:02.724Z,85.70
2017-12-14T10:02:31.055Z,85.74
2017-12-14T10:04:59.801Z,85.97
2017-12-14T10:07:28.132Z,85.97
2017-12-14T10:09:56.937Z,85.71
2017-12-14T10:12:26.079Z,85.67
2017-12-14T10:14:54.399Z,85.56
2017-12-14T10:17:24.263Z,85.53
2017-12-14T10:19:52.636Z,85.84
2017-12-14T10:22:20.992Z,85.60
2017-12-14T10:24:49.361Z,85.58
2017-12-14T10:27:18.065Z,85.47
2017-12-14T10:29:46.787Z,84.99
2017-12-14T10:32:15.530Z,84.73
2017-12-14T10:34:43.857Z,84.80
2017-12-14T10:37:18.607Z,84.57
2017-12-14T10:39:46.923Z,84.27
2017-12-14T10:42:16.835Z,83.77
2017-12-14T10:44:45.155Z,83.83
2017-12-14T10:47:13.883Z,83.67
2017-12-14T10:49:43.579Z,83.07
2017-12-14T10:52:12.711Z,82.77
2017-12-14T10:54:41.076Z,82.42
2017-12-14T10:57:09.447Z,82.59
2017-12-14T10:59:37.811Z,82.75
2017-12-14T11:02:06.175Z,82.71
2017-12-14T11:04:34.691Z,82.58
2017-12-14T11:07:03.023Z,82.53
2017-12-14T11:09:32.125Z,82.72
2017-12-14T11:12:00.915Z,82.90
2017-12-14T11:14:29.235Z,82.85
2017-12-14T11:16:57.614Z,82.50
2017-12-14T11:19:26.712Z,82.19
2017-12-14T11:21:55.067Z,81.64
2017-12-14T11:24:23.399Z,81.41
2017-12-14T11:26:52.519Z,81.24
2017-12-14T11:29:20.839Z,81.26
2017-12-14T11:31:49.195Z,81.42
2017-12-14T11:34:17.944Z,81.23
2017-12-14T11:36:46.503Z,81.27
2017-12-14T11:39:18.854Z,81.53
2017-12-14T11:41:47.282Z,81.43
2017-12-14T11:44:15.728Z,81.25
2017-12-14T11:46:45.499Z,80.96
2017-12-14T11:49:13.992Z,81.05
2017-12-14T11:51:42.395Z,81.25
2017-12-14T11:54:11.663Z,81.59
2017-12-14T11:56:40.130Z,81.55
2017-12-14T11:59:08.487Z,81.88
2017-12-14T12:01:36.843Z,81.74
2017-12-14T12:04:06.047Z,81.56
2017-12-14T12:06:34.800Z,81.43
2017-12-14T12:09:03.175Z,81.01
2017-12-14T12:11:31.952Z,80.55
2017-12-14T12:14:00.303Z,80.16
2017-12-14T12:16:28.638Z,80.31
2017-12-14T12:18:57.015Z,80.35
2017-12-14T12:21:26.090Z,81.67
2017-12-14T12:23:54.494Z,82.16
2017-12-14T12:26:22.866Z,81.67
2017-12-14T12:28:51.614Z,81.74
2017-12-14T12:31:20.366Z,81.76
2017-12-14T12:33:49.887Z,82.09
2017-12-14T12:36:19.566Z,82.12
2017-12-14T12:38:48.691Z,82.24
2017-12-14T12:41:18.589Z,81.94
2017-12-14T12:43:48.311Z,81.99
2017-12-14T12:46:16.640Z,82.04
2017-12-14T12:48:45.395Z,82.35
2017-12-14T12:51:13.742Z,82.41
2017-12-14T12:53:42.867Z,82.21
2017-12-14T12:56:11.195Z,81.57
2017-12-14T12:58:39.566Z,81.47
2017-12-14T13:01:07.886Z,81.20
2017-12-14T13:03:36.274Z,81.21
2017-12-14T13:06:05.370Z,81.17
2017-12-14T13:08:33.715Z,80.62
2017-12-14T13:11:02.178Z,80.89
2017-12-14T13:13:30.523Z,80.42
2017-12-14T13:15:58.855Z,80.40
2017-12-14T13:18:27.990Z,80.62
2017-12-14T13:20:56.759Z,80.06
2017-12-14T13:23:25.486Z,79.45
2017-12-14T13:25:54.223Z,79.88
2017-12-14T13:28:23.007Z,79.56
2017-12-14T13:30:52.199Z,78.95
2017-12-14T13:33:21.338Z,78.61
2017-12-14T13:35:49.655Z,77.97
2017-12-14T13:38:19.162Z,76.94
2017-12-14T13:40:47.886Z,76.91
2017-12-14T13:43:16.210Z,76.64
2017-12-14T13:45:44.964Z,76.76
2017-12-14T13:48:13.606Z,76.35
2017-12-14T13:50:43.486Z,77.03
2017-12-14T13:53:12.250Z,76.87
2017-12-14T13:55:41.758Z,76.93
2017-12-14T13:58:10.498Z,76.98
2017-12-14T14:00:39.647Z,77.03
2017-12-14T14:03:08.742Z,77.67
2017-12-14T14:05:39.422Z,78.04
2017-12-14T14:08:08.571Z,78.55
2017-12-14T14:10:38.035Z,79.18
2017-12-14T14:13:06.378Z,79.21
2017-12-14T14:15:34.760Z,79.46
2017-12-14T14:18:03.119Z,79.84
2017-12-14T14:20:31.480Z,80.00
2017-12-14T14:22:59.820Z,80.60
2017-12-14T14:25:28.621Z,80.86
2017-12-14T14:27:58.158Z,80.47
2017-12-14T14:30:26.498Z,80.24
2017-12-14T14:32:55.226Z,80.38
2017-12-14T14:35:24.021Z,80.30
2017-12-14T14:37:53.870Z,78.98
2017-12-14T14:40:23.017Z,78.28
2017-12-14T14:42:51.355Z,77.57
2017-12-14T14:45:19.736Z,77.01
2017-12-14T14:47:48.066Z,76.95
2017-12-14T14:50:16.515Z,77.76
2017-12-14T14:52:45.614Z,78.51
2017-12-14T14:55:14.393Z,79.52
2017-12-14T14:57:43.109Z,79.86
2017-12-14T15:00:12.201Z,80.29
2017-12-14T15:02:40.947Z,80.18
2017-12-14T15:05:09.665Z,80.17
2017-12-14T15:07:38.462Z,80.44
2017-12-14T15:10:06.778Z,80.50
2017-12-14T15:12:35.122Z,80.67
2017-12-14T15:15:03.486Z,80.06
2017-12-14T15:17:31.855Z,79.55
2017-12-14T15:20:00.221Z,79.32
2017-12-14T15:22:29.357Z,78.86
2017-12-14T15:24:57.742Z,77.83
2017-12-14T15:27:26.069Z,77.42
2017-12-14T15:29:55.777Z,77.03
2017-12-14T15:32:24.157Z,76.69
2017-12-14T15:34:52.490Z,76.73
2017-12-14T15:37:20.930Z,76.39
2017-12-14T15:39:50.012Z,75.70
2017-12-14T15:42:18.751Z,75.43
2017-12-14T15:44:47.105Z,75.04
2017-12-14T15:47:15.446Z,74.79
2017-12-14T15:49:43.809Z,74.67
2017-12-14T15:52:13.326Z,74.41
2017-12-14T15:54:42.072Z,73.66
2017-12-14T15:57:10.412Z,73.71
2017-12-14T15:59:39.515Z,73.45
2017-12-14T16:02:08.288Z,72.81
2017-12-14T16:04:37.452Z,72.50
2017-12-14T16:07:06.564Z,72.42
2017-12-14T16:09:34.904Z,72.48
2017-12-14T16:12:03.315Z,72.36
2017-12-14T16:14:33.040Z,72.14
2017-12-14T16:17:02.170Z,71.92
2017-12-14T16:19:31.324Z,72.14
2017-12-14T16:22:00.430Z,72.25
2017-12-14T16:24:29.140Z,72.53
2017-12-14T16:26:57.606Z,72.40
2017-12-14T16:29:26.353Z,72.28
2017-12-14T16:31:55.656Z,72.08
2017-12-14T16:34:24.179Z,71.90
2017-12-14T16:36:52.997Z,71.48
2017-12-14T16:39:21.361Z,71.05
2017-12-14T16:41:49.700Z,71.04
2017-12-14T16:44:19.636Z,71.38
2017-12-14T16:46:47.972Z,71.46
2017-12-14T16:49:17.596Z,72.58
2017-12-14T16:51:46.804Z,73.36
2017-12-14T16:54:16.069Z,73.42
2017-12-14T16:56:44.408Z,73.71
2017-12-14T16:59:12.740Z,74.28
2017-12-14T17:01:41.904Z,75.09
2017-12-14T17:04:10.661Z,75.15
2017-12-14T17:06:40.380Z,75.70
2017-12-14T17:09:10.064Z,75.73
2017-12-14T17:11:38.428Z,76.34
2017-12-14T17:14:06.757Z,76.69
2017-12-14T17:16:35.140Z,77.43
2017-12-14T17:19:04.393Z,77.22
2017-12-14T17:21:32.760Z,77.47
2017-12-14T17:24:02.028Z,78.00
2017-12-14T17:26:32.528Z,78.44
2017-12-14T17:29:00.848Z,78.65
2017-12-14T17:31:29.992Z,78.78
2017-12-14T17:33:58.322Z,79.22
2017-12-14T17:36:28.201Z,79.41
2017-12-14T17:38:56.584Z,79.42
2017-12-14T17:41:24.906Z,79.45
2017-12-14T17:43:53.280Z,79.74
2017-12-14T17:46:21.999Z,79.84
2017-12-14T17:48:50.375Z,79.87
2017-12-14T17:51:19.669Z,79.84
2017-12-14T17:53:48.796Z,79.77
2017-12-14T17:56:18.641Z,79.64
2017-12-14T17:58:46.995Z,79.57
2017-12-14T18:01:17.185Z,79.33
2017-12-14T18:03:46.447Z,78.44
2017-12-14T18:06:15.716Z,78.25
2017-12-14T18:08:45.815Z,77.68
2017-12-14T18:11:14.175Z,77.16
2017-12-14T18:13:42.500Z,76.63
2017-12-14T18:16:12.619Z,76.42
2017-12-14T18:18:41.011Z,76.03
2017-12-14T18:21:10.361Z,75.72
2017-12-14T18:23:38.720Z,75.66
2017-12-14T18:26:07.812Z,75.64
2017-12-14T18:28:37.985Z,75.85
2017-12-14T18:31:07.494Z,75.87
2017-12-14T18:33:36.638Z,75.35
2017-12-14T18:36:05.696Z,74.68
2017-12-14T18:38:36.653Z,74.18
2017-12-14T18:41:07.855Z,74.06
2017-12-14T18:43:37.335Z,73.93
2017-12-14T18:46:12.849Z,73.89
2017-12-14T18:48:41.765Z,73.91
2017-12-14T18:51:16.023Z,73.75
2017-12-14T18:53:46.498Z,73.72
2017-12-14T18:56:21.555Z,73.31
2017-12-14T19:01:28.656Z,72.27
2017-12-14T19:03:58.311Z,72.20
2017-12-14T19:06:36.254Z,72.37
2017-12-14T19:09:07.990Z,72.33
2017-12-14T19:11:38.375Z,72.59
2017-12-14T19:14:09.380Z,72.79
2017-12-14T19:16:37.914Z,73.18
2017-12-14T19:19:06.727Z,73.31
2017-12-14T19:21:37.863Z,73.34
2017-12-14T19:24:08.759Z,73.30
2017-12-14T19:26:38.607Z,73.49
2017-12-14T19:29:10.287Z,73.52
2017-12-14T19:31:41.615Z,73.33
2017-12-14T19:34:13.420Z,73.61
2017-12-14T19:36:42.770Z,73.60
2017-12-14T19:39:17.036Z,73.92
2017-12-14T19:41:47.254Z,74.22
2017-12-14T19:44:15.819Z,74.69
2017-12-14T19:46:45.150Z,74.93
2017-12-14T19:49:15.359Z,75.27
2017-12-14T19:51:45.419Z,75.96
2017-12-14T19:54:14.503Z,76.70
2017-12-14T19:56:44.464Z,76.94
2017-12-14T19:59:12.959Z,77.08
2017-12-14T20:01:43.111Z,77.35
2017-12-14T20:04:14.382Z,77.83
2017-12-14T20:06:44.966Z,78.59
2017-12-14T20:09:14.910Z,79.02
2017-12-14T20:11:45.222Z,79.77
2017-12-14T20:14:16.312Z,80.37
2017-12-14T20:16:44.698Z,80.60
2017-12-14T20:19:14.778Z,80.96
2017-12-14T20:21:43.551Z,81.39
2017-12-14T20:24:13.150Z,81.88
2017-12-14T20:26:41.724Z,82.25
2017-12-14T20:29:11.834Z,82.50
2017-12-14T20:31:41.193Z,82.52
2017-12-14T20:34:10.074Z,82.98
2017-12-14T20:36:38.851Z,83.48
2017-12-14T20:39:08.034Z,83.60
2017-12-14T20:41:40.371Z,83.71
2017-12-14T20:46:51.450Z,84.24
2017-12-14T20:49:20.664Z,84.39
2017-12-14T20:51:53.014Z,84.62
2017-12-14T20:54:24.270Z,84.51
2017-12-14T20:56:55.214Z,83.87
2017-12-14T20:59:27.674Z,84.24
2017-12-14T21:01:59.320Z,84.57
2017-12-14T21:04:32.446Z,84.40
2017-12-14T21:09:51.558Z,84.86
2017-12-14T21:12:24.346Z,84.59
2017-12-14T21:14:54.028Z,84.46
2017-12-14T21:17:25.547Z,84.29
2017-12-14T21:19:55.042Z,84.02
2017-12-14T21:22:23.973Z,83.66
2017-12-14T21:24:53.729Z,83.60
2017-12-14T21:27:22.189Z,83.67
2017-12-14T21:29:55.436Z,83.74
2017-12-14T21:32:29.589Z,84.01
2017-12-14T21:35:00.261Z,84.31
2017-12-14T21:37:30.201Z,84.24
2017-12-14T21:39:58.841Z,84.31
2017-12-14T21:42:28.477Z,84.17
2017-12-14T21:45:04.393Z,84.25
2017-12-14T21:47:46.417Z,84.42
2017-12-14T21:50:25.034Z,84.67
2017-12-14T21:52:57.229Z,84.77
2017-12-14T21:55:31.254Z,84.83
2017-12-14T21:58:01.742Z,84.50
2017-12-14T22:00:32.458Z,84.41
2017-12-14T22:03:01.093Z,84.47
2017-12-14T22:05:31.016Z,84.62
2017-12-14T22:08:52.184Z,84.80
2017-12-14T22:40:54.564Z,86.55
2017-12-14T22:43:22.889Z,86.65
2017-12-14T22:45:52.734Z,86.75
2017-12-14T22:48:21.086Z,87.06
2017-12-14T22:50:50.204Z,87.25
2017-12-14T22:53:18.584Z,87.32
2017-12-14T22:55:46.912Z,87.50
2017-12-14T22:58:15.268Z,87.45
2017-12-14T23:00:43.586Z,87.21
2017-12-14T23:03:12.712Z,87.36
2017-12-14T23:05:41.836Z,87.33
2017-12-14T23:08:10.188Z,87.46
2017-12-14T23:10:38.565Z,87.53
2017-12-14T23:13:06.912Z,87.41
2017-12-14T23:15:36.008Z,87.38
2017-12-14T23:18:04.400Z,86.95
2017-12-14T23:20:33.140Z,86.56
2017-12-14T23:23:02.266Z,85.98
2017-12-14T23:25:31.388Z,86.11
2017-12-14T23:28:00.477Z,86.22
2017-12-14T23:30:28.845Z,86.43
2017-12-14T23:32:57.937Z,86.63
2017-12-14T23:35:27.081Z,86.59
2017-12-14T23:37:55.441Z,86.80
2017-12-14T23:40:23.776Z,86.85
2017-12-14T23:42:52.928Z,86.99
2017-12-14T23:45:21.280Z,87.04
2017-12-14T23:47:49.659Z,87.15
2017-12-14T23:50:18.785Z,87.18
2017-12-14T23:52:48.456Z,87.50
2017-12-14T23:55:16.772Z,87.59
2017-12-14T23:57:45.144Z,87.81
